sensor_id;sensor_type;location;lat;lon;timestamp;P1;durP1;ratioP1;P2;durP2;ratioP2
36315;SDS011;22343;50.820;2.666;2023-02-05T00:00:19;10.40;;;6.67;;
36315;SDS011;22343;50.820;2.666;2023-02-05T00:03:04;10.30;;;7.00;;
36315;SDS011;22343;50.820;2.666;2023-02-05T00:05:48;10.43;;;6.73;;
36315;SDS011;22343;50.820;2.666;2023-02-05T00:08:33;8.70;;;7.23;;
36315;SDS011;22343;50.820;2.666;2023-02-05T00:11:18;9.87;;;6.87;;
36315;SDS011;22343;50.820;2.666;2023-02-05T00:14:02;9.60;;;7.23;;
36315;SDS011;22343;50.820;2.666;2023-02-05T00:16:47;9.53;;;7.23;;
36315;SDS011;22343;50.820;2.666;2023-02-05T00:19:31;12.60;;;7.23;;
36315;SDS011;22343;50.820;2.666;2023-02-05T00:22:16;9.63;;;6.93;;
36315;SDS011;22343;50.820;2.666;2023-02-05T00:25:00;9.47;;;7.03;;
36315;SDS011;22343;50.820;2.666;2023-02-05T00:27:45;9.83;;;7.30;;
36315;SDS011;22343;50.820;2.666;2023-02-05T00:30:29;9.83;;;6.87;;
36315;SDS011;22343;50.820;2.666;2023-02-05T00:33:13;9.70;;;7.13;;
36315;SDS011;22343;50.820;2.666;2023-02-05T00:35:58;9.50;;;6.60;;
36315;SDS011;22343;50.820;2.666;2023-02-05T00:38:43;10.67;;;6.73;;
36315;SDS011;22343;50.820;2.666;2023-02-05T00:41:28;9.03;;;6.83;;
36315;SDS011;22343;50.820;2.666;2023-02-05T00:44:12;10.50;;;6.67;;
36315;SDS011;22343;50.820;2.666;2023-02-05T00:46:57;12.03;;;6.90;;
36315;SDS011;22343;50.820;2.666;2023-02-05T00:49:41;9.33;;;7.10;;
36315;SDS011;22343;50.820;2.666;2023-02-05T00:52:25;10.87;;;7.00;;
36315;SDS011;22343;50.820;2.666;2023-02-05T00:55:09;9.83;;;6.93;;
36315;SDS011;22343;50.820;2.666;2023-02-05T00:57:54;7.90;;;6.20;;
36315;SDS011;22343;50.820;2.666;2023-02-05T01:00:38;11.37;;;6.77;;
36315;SDS011;22343;50.820;2.666;2023-02-05T01:03:23;8.97;;;6.20;;
36315;SDS011;22343;50.820;2.666;2023-02-05T01:06:09;7.87;;;6.03;;
36315;SDS011;22343;50.820;2.666;2023-02-05T01:08:55;8.87;;;6.37;;
36315;SDS011;22343;50.820;2.666;2023-02-05T01:11:41;9.57;;;6.20;;
36315;SDS011;22343;50.820;2.666;2023-02-05T01:14:25;9.73;;;6.80;;
36315;SDS011;22343;50.820;2.666;2023-02-05T01:17:09;10.40;;;7.40;;
36315;SDS011;22343;50.820;2.666;2023-02-05T01:19:55;9.30;;;6.77;;
36315;SDS011;22343;50.820;2.666;2023-02-05T01:22:41;10.03;;;7.10;;
36315;SDS011;22343;50.820;2.666;2023-02-05T01:25:27;11.07;;;7.80;;
36315;SDS011;22343;50.820;2.666;2023-02-05T01:28:12;11.60;;;7.73;;
36315;SDS011;22343;50.820;2.666;2023-02-05T01:30:57;10.57;;;7.40;;
36315;SDS011;22343;50.820;2.666;2023-02-05T01:33:42;12.07;;;7.83;;
36315;SDS011;22343;50.820;2.666;2023-02-05T01:36:27;10.40;;;7.03;;
36315;SDS011;22343;50.820;2.666;2023-02-05T01:39:13;9.50;;;7.40;;
36315;SDS011;22343;50.820;2.666;2023-02-05T01:41:58;10.20;;;7.20;;
36315;SDS011;22343;50.820;2.666;2023-02-05T01:44:44;10.83;;;7.07;;
36315;SDS011;22343;50.820;2.666;2023-02-05T01:47:52;12.20;;;6.30;;
36315;SDS011;22343;50.820;2.666;2023-02-05T01:50:43;8.63;;;5.93;;
36315;SDS011;22343;50.820;2.666;2023-02-05T01:53:30;8.57;;;5.57;;
36315;SDS011;22343;50.820;2.666;2023-02-05T01:56:24;8.77;;;5.70;;
36315;SDS011;22343;50.820;2.666;2023-02-05T01:59:17;9.90;;;5.80;;
36315;SDS011;22343;50.820;2.666;2023-02-05T02:02:04;10.10;;;5.07;;
36315;SDS011;22343;50.820;2.666;2023-02-05T02:04:53;8.57;;;5.40;;
36315;SDS011;22343;50.820;2.666;2023-02-05T02:07:39;10.50;;;5.80;;
36315;SDS011;22343;50.820;2.666;2023-02-05T02:10:24;8.30;;;5.30;;
36315;SDS011;22343;50.820;2.666;2023-02-05T02:13:09;9.43;;;5.37;;
36315;SDS011;22343;50.820;2.666;2023-02-05T02:15:55;8.33;;;5.00;;
36315;SDS011;22343;50.820;2.666;2023-02-05T02:18:42;8.30;;;5.37;;
36315;SDS011;22343;50.820;2.666;2023-02-05T02:22:11;7.73;;;5.30;;
36315;SDS011;22343;50.820;2.666;2023-02-05T02:34:01;7.90;;;5.30;;
36315;SDS011;22343;50.820;2.666;2023-02-05T02:37:10;6.97;;;5.10;;
36315;SDS011;22343;50.820;2.666;2023-02-05T02:40:31;6.93;;;5.17;;
36315;SDS011;22343;50.820;2.666;2023-02-05T02:49:46;6.93;;;5.10;;
36315;SDS011;22343;50.820;2.666;2023-02-05T02:52:35;10.07;;;5.33;;
36315;SDS011;22343;50.820;2.666;2023-02-05T02:55:23;7.97;;;5.13;;
36315;SDS011;22343;50.820;2.666;2023-02-05T02:58:14;9.07;;;4.93;;
36315;SDS011;22343;50.820;2.666;2023-02-05T03:01:11;9.03;;;5.30;;
36315;SDS011;22343;50.820;2.666;2023-02-05T03:03:58;7.97;;;5.40;;
36315;SDS011;22343;50.820;2.666;2023-02-05T03:06:47;7.83;;;5.00;;
36315;SDS011;22343;50.820;2.666;2023-02-05T03:12:42;10.30;;;5.57;;
36315;SDS011;22343;50.820;2.666;2023-02-05T03:15:28;6.47;;;4.83;;
36315;SDS011;22343;50.820;2.666;2023-02-05T03:18:14;8.37;;;5.33;;
36315;SDS011;22343;50.820;2.666;2023-02-05T03:21:10;9.20;;;5.37;;
36315;SDS011;22343;50.820;2.666;2023-02-05T03:24:01;9.00;;;5.43;;
36315;SDS011;22343;50.820;2.666;2023-02-05T03:26:46;9.50;;;6.00;;
36315;SDS011;22343;50.820;2.666;2023-02-05T03:29:32;11.43;;;5.80;;
36315;SDS011;22343;50.820;2.666;2023-02-05T03:54:43;7.33;;;5.80;;
36315;SDS011;22343;50.820;2.666;2023-02-05T03:57:41;11.57;;;5.80;;
36315;SDS011;22343;50.820;2.666;2023-02-05T04:00:42;10.60;;;7.00;;
36315;SDS011;22343;50.820;2.666;2023-02-05T04:03:28;12.70;;;6.90;;
36315;SDS011;22343;50.820;2.666;2023-02-05T04:06:14;12.07;;;6.93;;
36315;SDS011;22343;50.820;2.666;2023-02-05T04:08:59;10.17;;;6.53;;
36315;SDS011;22343;50.820;2.666;2023-02-05T04:11:45;11.10;;;7.07;;
36315;SDS011;22343;50.820;2.666;2023-02-05T04:14:30;12.30;;;7.53;;
36315;SDS011;22343;50.820;2.666;2023-02-05T04:17:15;11.03;;;7.60;;
36315;SDS011;22343;50.820;2.666;2023-02-05T04:20:00;14.17;;;8.23;;
36315;SDS011;22343;50.820;2.666;2023-02-05T04:22:46;14.30;;;9.10;;
36315;SDS011;22343;50.820;2.666;2023-02-05T04:25:32;13.50;;;8.20;;
36315;SDS011;22343;50.820;2.666;2023-02-05T04:28:17;14.60;;;9.07;;
36315;SDS011;22343;50.820;2.666;2023-02-05T04:31:07;11.90;;;9.03;;
36315;SDS011;22343;50.820;2.666;2023-02-05T04:33:53;14.70;;;9.57;;
36315;SDS011;22343;50.820;2.666;2023-02-05T04:36:38;12.20;;;8.27;;
36315;SDS011;22343;50.820;2.666;2023-02-05T04:39:24;13.10;;;9.13;;
36315;SDS011;22343;50.820;2.666;2023-02-05T04:42:10;13.53;;;9.13;;
36315;SDS011;22343;50.820;2.666;2023-02-05T04:44:56;13.30;;;9.10;;
36315;SDS011;22343;50.820;2.666;2023-02-05T04:47:40;12.83;;;9.57;;
36315;SDS011;22343;50.820;2.666;2023-02-05T04:50:25;13.93;;;10.83;;
36315;SDS011;22343;50.820;2.666;2023-02-05T04:53:10;13.80;;;11.17;;
36315;SDS011;22343;50.820;2.666;2023-02-05T04:56:06;14.90;;;11.20;;
36315;SDS011;22343;50.820;2.666;2023-02-05T04:58:53;14.83;;;11.97;;
36315;SDS011;22343;50.820;2.666;2023-02-05T05:01:38;19.80;;;12.90;;
36315;SDS011;22343;50.820;2.666;2023-02-05T05:04:25;21.33;;;12.97;;
36315;SDS011;22343;50.820;2.666;2023-02-05T05:07:12;15.17;;;9.53;;
36315;SDS011;22343;50.820;2.666;2023-02-05T05:09:57;13.00;;;8.67;;
36315;SDS011;22343;50.820;2.666;2023-02-05T05:12:42;20.07;;;10.97;;
36315;SDS011;22343;50.820;2.666;2023-02-05T05:15:27;10.97;;;6.57;;
36315;SDS011;22343;50.820;2.666;2023-02-05T05:18:13;7.43;;;4.10;;
36315;SDS011;22343;50.820;2.666;2023-02-05T05:20:59;12.00;;;5.57;;
36315;SDS011;22343;50.820;2.666;2023-02-05T05:23:43;4.50;;;2.80;;
36315;SDS011;22343;50.820;2.666;2023-02-05T05:26:29;6.63;;;3.50;;
36315;SDS011;22343;50.820;2.666;2023-02-05T05:29:14;7.83;;;3.47;;
36315;SDS011;22343;50.820;2.666;2023-02-05T05:32:00;5.60;;;3.13;;
36315;SDS011;22343;50.820;2.666;2023-02-05T05:34:46;6.83;;;3.00;;
36315;SDS011;22343;50.820;2.666;2023-02-05T05:37:31;4.17;;;2.20;;
36315;SDS011;22343;50.820;2.666;2023-02-05T05:40:17;7.03;;;3.30;;
36315;SDS011;22343;50.820;2.666;2023-02-05T05:43:21;4.77;;;2.63;;
36315;SDS011;22343;50.820;2.666;2023-02-05T05:46:26;7.10;;;3.10;;
36315;SDS011;22343;50.820;2.666;2023-02-05T05:49:11;3.90;;;2.30;;
36315;SDS011;22343;50.820;2.666;2023-02-05T05:51:57;3.50;;;2.17;;
36315;SDS011;22343;50.820;2.666;2023-02-05T05:54:43;3.80;;;1.70;;
36315;SDS011;22343;50.820;2.666;2023-02-05T05:57:29;8.63;;;2.37;;
36315;SDS011;22343;50.820;2.666;2023-02-05T06:00:15;4.27;;;1.90;;
36315;SDS011;22343;50.820;2.666;2023-02-05T06:03:01;4.53;;;1.90;;
36315;SDS011;22343;50.820;2.666;2023-02-05T06:05:47;4.27;;;1.93;;
36315;SDS011;22343;50.820;2.666;2023-02-05T06:08:31;8.53;;;1.93;;
36315;SDS011;22343;50.820;2.666;2023-02-05T06:11:17;5.67;;;1.53;;
36315;SDS011;22343;50.820;2.666;2023-02-05T06:14:03;6.27;;;1.97;;
36315;SDS011;22343;50.820;2.666;2023-02-05T06:16:49;6.77;;;2.10;;
36315;SDS011;22343;50.820;2.666;2023-02-05T06:19:36;3.47;;;1.50;;
36315;SDS011;22343;50.820;2.666;2023-02-05T06:22:22;9.03;;;2.30;;
36315;SDS011;22343;50.820;2.666;2023-02-05T06:25:08;4.70;;;1.90;;
36315;SDS011;22343;50.820;2.666;2023-02-05T06:27:53;6.73;;;1.80;;
36315;SDS011;22343;50.820;2.666;2023-02-05T06:30:39;9.50;;;2.40;;
36315;SDS011;22343;50.820;2.666;2023-02-05T06:33:24;9.60;;;2.77;;
36315;SDS011;22343;50.820;2.666;2023-02-05T06:36:09;7.33;;;2.10;;
36315;SDS011;22343;50.820;2.666;2023-02-05T06:38:55;8.67;;;2.33;;
36315;SDS011;22343;50.820;2.666;2023-02-05T06:41:41;7.00;;;1.43;;
36315;SDS011;22343;50.820;2.666;2023-02-05T06:44:26;12.27;;;2.53;;
36315;SDS011;22343;50.820;2.666;2023-02-05T06:47:12;6.37;;;1.90;;
36315;SDS011;22343;50.820;2.666;2023-02-05T06:49:57;8.63;;;2.13;;
36315;SDS011;22343;50.820;2.666;2023-02-05T06:52:43;3.97;;;1.50;;
36315;SDS011;22343;50.820;2.666;2023-02-05T06:55:28;10.33;;;2.23;;
36315;SDS011;22343;50.820;2.666;2023-02-05T06:58:14;9.93;;;2.50;;
36315;SDS011;22343;50.820;2.666;2023-02-05T07:01:00;7.27;;;2.43;;
36315;SDS011;22343;50.820;2.666;2023-02-05T07:03:46;12.67;;;2.50;;
36315;SDS011;22343;50.820;2.666;2023-02-05T07:06:32;7.70;;;2.20;;
36315;SDS011;22343;50.820;2.666;2023-02-05T07:09:17;8.23;;;2.33;;
36315;SDS011;22343;50.820;2.666;2023-02-05T07:12:03;9.87;;;2.63;;
36315;SDS011;22343;50.820;2.666;2023-02-05T07:14:49;5.53;;;1.90;;
36315;SDS011;22343;50.820;2.666;2023-02-05T07:17:34;6.50;;;2.23;;
36315;SDS011;22343;50.820;2.666;2023-02-05T07:20:20;8.03;;;2.80;;
36315;SDS011;22343;50.820;2.666;2023-02-05T07:23:07;10.90;;;2.43;;
36315;SDS011;22343;50.820;2.666;2023-02-05T07:25:53;8.17;;;3.30;;
36315;SDS011;22343;50.820;2.666;2023-02-05T07:28:38;9.47;;;1.90;;
36315;SDS011;22343;50.820;2.666;2023-02-05T07:31:25;7.33;;;2.17;;
36315;SDS011;22343;50.820;2.666;2023-02-05T07:34:10;7.33;;;2.70;;
36315;SDS011;22343;50.820;2.666;2023-02-05T07:36:56;7.27;;;2.07;;
36315;SDS011;22343;50.820;2.666;2023-02-05T07:39:41;7.70;;;1.83;;
36315;SDS011;22343;50.820;2.666;2023-02-05T07:42:27;5.83;;;2.27;;
36315;SDS011;22343;50.820;2.666;2023-02-05T07:45:12;8.27;;;2.57;;
36315;SDS011;22343;50.820;2.666;2023-02-05T07:47:57;9.70;;;2.83;;
36315;SDS011;22343;50.820;2.666;2023-02-05T07:50:43;10.67;;;3.37;;
36315;SDS011;22343;50.820;2.666;2023-02-05T07:53:30;8.67;;;2.43;;
36315;SDS011;22343;50.820;2.666;2023-02-05T07:56:16;10.37;;;3.03;;
36315;SDS011;22343;50.820;2.666;2023-02-05T07:59:02;7.97;;;2.67;;
36315;SDS011;22343;50.820;2.666;2023-02-05T08:01:48;12.47;;;2.87;;
36315;SDS011;22343;50.820;2.666;2023-02-05T08:04:34;9.93;;;2.30;;
36315;SDS011;22343;50.820;2.666;2023-02-05T08:07:19;9.20;;;3.13;;
36315;SDS011;22343;50.820;2.666;2023-02-05T08:10:03;10.60;;;2.87;;
36315;SDS011;22343;50.820;2.666;2023-02-05T08:12:48;9.40;;;2.87;;
36315;SDS011;22343;50.820;2.666;2023-02-05T08:15:32;16.83;;;3.10;;
36315;SDS011;22343;50.820;2.666;2023-02-05T08:18:19;12.57;;;2.93;;
36315;SDS011;22343;50.820;2.666;2023-02-05T08:21:05;13.40;;;3.00;;
36315;SDS011;22343;50.820;2.666;2023-02-05T08:23:49;10.87;;;3.00;;
36315;SDS011;22343;50.820;2.666;2023-02-05T08:26:35;12.60;;;3.70;;
36315;SDS011;22343;50.820;2.666;2023-02-05T08:29:21;11.10;;;3.93;;
36315;SDS011;22343;50.820;2.666;2023-02-05T08:32:06;7.13;;;2.50;;
36315;SDS011;22343;50.820;2.666;2023-02-05T08:34:50;11.13;;;3.17;;
36315;SDS011;22343;50.820;2.666;2023-02-05T08:37:35;13.60;;;3.00;;
36315;SDS011;22343;50.820;2.666;2023-02-05T08:40:20;11.40;;;3.00;;
36315;SDS011;22343;50.820;2.666;2023-02-05T08:43:06;10.37;;;3.30;;
36315;SDS011;22343;50.820;2.666;2023-02-05T08:45:51;9.43;;;2.93;;
36315;SDS011;22343;50.820;2.666;2023-02-05T08:48:36;10.47;;;2.80;;
36315;SDS011;22343;50.820;2.666;2023-02-05T08:51:20;11.07;;;2.60;;
36315;SDS011;22343;50.820;2.666;2023-02-05T08:54:06;9.50;;;2.83;;
36315;SDS011;22343;50.820;2.666;2023-02-05T08:56:56;7.30;;;2.03;;
36315;SDS011;22343;50.820;2.666;2023-02-05T08:59:40;8.30;;;2.23;;
36315;SDS011;22343;50.820;2.666;2023-02-05T09:02:25;7.40;;;2.30;;
36315;SDS011;22343;50.820;2.666;2023-02-05T09:05:11;6.43;;;1.80;;
36315;SDS011;22343;50.820;2.666;2023-02-05T09:07:56;9.63;;;2.87;;
36315;SDS011;22343;50.820;2.666;2023-02-05T09:10:43;7.03;;;2.33;;
36315;SDS011;22343;50.820;2.666;2023-02-05T09:13:27;7.30;;;2.20;;
36315;SDS011;22343;50.820;2.666;2023-02-05T09:16:12;8.37;;;3.00;;
36315;SDS011;22343;50.820;2.666;2023-02-05T09:18:56;9.27;;;2.43;;
36315;SDS011;22343;50.820;2.666;2023-02-05T09:21:41;8.30;;;2.10;;
36315;SDS011;22343;50.820;2.666;2023-02-05T09:24:26;10.13;;;2.60;;
36315;SDS011;22343;50.820;2.666;2023-02-05T09:27:11;7.80;;;1.93;;
36315;SDS011;22343;50.820;2.666;2023-02-05T09:29:57;7.33;;;2.37;;
36315;SDS011;22343;50.820;2.666;2023-02-05T09:32:41;6.53;;;2.67;;
36315;SDS011;22343;50.820;2.666;2023-02-05T09:35:25;9.93;;;2.77;;
36315;SDS011;22343;50.820;2.666;2023-02-05T09:38:13;9.40;;;2.17;;
36315;SDS011;22343;50.820;2.666;2023-02-05T09:41:02;12.77;;;2.50;;
36315;SDS011;22343;50.820;2.666;2023-02-05T09:47:14;9.37;;;2.67;;
36315;SDS011;22343;50.820;2.666;2023-02-05T09:50:30;8.63;;;2.57;;
36315;SDS011;22343;50.820;2.666;2023-02-05T09:53:16;11.23;;;2.47;;
36315;SDS011;22343;50.820;2.666;2023-02-05T09:56:02;4.13;;;1.80;;
36315;SDS011;22343;50.820;2.666;2023-02-05T09:58:48;5.07;;;1.90;;
36315;SDS011;22343;50.820;2.666;2023-02-05T10:01:41;6.77;;;2.13;;
36315;SDS011;22343;50.820;2.666;2023-02-05T10:04:28;5.60;;;2.40;;
36315;SDS011;22343;50.820;2.666;2023-02-05T10:07:15;15.70;;;2.40;;
36315;SDS011;22343;50.820;2.666;2023-02-05T10:10:24;9.57;;;2.33;;
36315;SDS011;22343;50.820;2.666;2023-02-05T10:13:26;8.27;;;2.87;;
36315;SDS011;22343;50.820;2.666;2023-02-05T10:16:16;11.57;;;2.57;;
36315;SDS011;22343;50.820;2.666;2023-02-05T10:19:26;9.77;;;3.20;;
36315;SDS011;22343;50.820;2.666;2023-02-05T10:22:27;9.23;;;2.13;;
36315;SDS011;22343;50.820;2.666;2023-02-05T10:37:52;11.20;;;3.00;;
36315;SDS011;22343;50.820;2.666;2023-02-05T10:40:38;9.53;;;2.93;;
36315;SDS011;22343;50.820;2.666;2023-02-05T10:44:09;6.33;;;2.13;;
36315;SDS011;22343;50.820;2.666;2023-02-05T10:46:46;9.03;;;2.70;;
36315;SDS011;22343;50.820;2.666;2023-02-05T10:49:45;11.00;;;2.80;;
36315;SDS011;22343;50.820;2.666;2023-02-05T10:52:35;12.27;;;3.07;;
36315;SDS011;22343;50.820;2.666;2023-02-05T10:55:21;8.93;;;2.13;;
36315;SDS011;22343;50.820;2.666;2023-02-05T10:58:19;10.10;;;2.57;;
36315;SDS011;22343;50.820;2.666;2023-02-05T11:01:31;5.50;;;1.93;;
36315;SDS011;22343;50.820;2.666;2023-02-05T11:04:27;8.07;;;2.30;;
36315;SDS011;22343;50.820;2.666;2023-02-05T11:07:29;9.80;;;2.57;;
36315;SDS011;22343;50.820;2.666;2023-02-05T11:10:21;5.17;;;1.80;;
36315;SDS011;22343;50.820;2.666;2023-02-05T11:13:18;10.20;;;2.17;;
36315;SDS011;22343;50.820;2.666;2023-02-05T11:16:06;9.73;;;2.87;;
36315;SDS011;22343;50.820;2.666;2023-02-05T11:18:57;4.27;;;2.10;;
36315;SDS011;22343;50.820;2.666;2023-02-05T11:21:49;11.30;;;3.03;;
36315;SDS011;22343;50.820;2.666;2023-02-05T11:24:37;14.53;;;3.17;;
36315;SDS011;22343;50.820;2.666;2023-02-05T11:33:27;18.77;;;4.77;;
36315;SDS011;22343;50.820;2.666;2023-02-05T11:36:17;10.30;;;1.97;;
36315;SDS011;22343;50.820;2.666;2023-02-05T11:39:05;9.73;;;2.87;;
36315;SDS011;22343;50.820;2.666;2023-02-05T11:41:50;9.97;;;2.70;;
36315;SDS011;22343;50.820;2.666;2023-02-05T11:44:36;9.30;;;2.57;;
36315;SDS011;22343;50.820;2.666;2023-02-05T11:47:32;6.67;;;2.27;;
36315;SDS011;22343;50.820;2.666;2023-02-05T11:50:20;10.57;;;3.17;;
36315;SDS011;22343;50.820;2.666;2023-02-05T11:53:14;13.53;;;2.83;;
36315;SDS011;22343;50.820;2.666;2023-02-05T11:56:00;13.17;;;3.43;;
36315;SDS011;22343;50.820;2.666;2023-02-05T11:58:56;7.77;;;2.40;;
36315;SDS011;22343;50.820;2.666;2023-02-05T12:01:45;7.50;;;2.00;;
36315;SDS011;22343;50.820;2.666;2023-02-05T12:04:29;7.27;;;1.83;;
36315;SDS011;22343;50.820;2.666;2023-02-05T12:07:23;7.27;;;2.23;;
36315;SDS011;22343;50.820;2.666;2023-02-05T12:10:13;12.67;;;3.20;;
36315;SDS011;22343;50.820;2.666;2023-02-05T12:26:04;10.60;;;2.53;;
36315;SDS011;22343;50.820;2.666;2023-02-05T12:32:40;8.10;;;2.67;;
36315;SDS011;22343;50.820;2.666;2023-02-05T12:39:10;6.47;;;2.33;;
36315;SDS011;22343;50.820;2.666;2023-02-05T12:56:57;6.63;;;2.50;;
36315;SDS011;22343;50.820;2.666;2023-02-05T13:02:43;8.13;;;2.73;;
36315;SDS011;22343;50.820;2.666;2023-02-05T13:11:24;8.63;;;2.70;;
36315;SDS011;22343;50.820;2.666;2023-02-05T13:14:22;4.97;;;2.27;;
36315;SDS011;22343;50.820;2.666;2023-02-05T13:20:02;9.40;;;3.20;;
36315;SDS011;22343;50.820;2.666;2023-02-05T13:22:53;11.23;;;2.40;;
36315;SDS011;22343;50.820;2.666;2023-02-05T13:25:58;15.37;;;3.50;;
36315;SDS011;22343;50.820;2.666;2023-02-05T13:29:10;12.43;;;3.50;;
36315;SDS011;22343;50.820;2.666;2023-02-05T13:32:00;11.60;;;2.87;;
36315;SDS011;22343;50.820;2.666;2023-02-05T13:34:46;7.00;;;2.27;;
36315;SDS011;22343;50.820;2.666;2023-02-05T13:37:46;8.27;;;2.17;;
36315;SDS011;22343;50.820;2.666;2023-02-05T13:41:02;4.53;;;2.10;;
36315;SDS011;22343;50.820;2.666;2023-02-05T13:50:02;14.30;;;3.07;;
36315;SDS011;22343;50.820;2.666;2023-02-05T13:59:03;14.13;;;3.73;;
36315;SDS011;22343;50.820;2.666;2023-02-05T14:01:53;11.03;;;3.23;;
36315;SDS011;22343;50.820;2.666;2023-02-05T14:04:43;13.30;;;3.20;;
36315;SDS011;22343;50.820;2.666;2023-02-05T14:07:38;9.50;;;2.63;;
36315;SDS011;22343;50.820;2.666;2023-02-05T14:10:35;9.23;;;3.10;;
36315;SDS011;22343;50.820;2.666;2023-02-05T14:13:25;7.30;;;2.70;;
36315;SDS011;22343;50.820;2.666;2023-02-05T14:19:13;14.20;;;3.13;;
36315;SDS011;22343;50.820;2.666;2023-02-05T14:22:00;9.50;;;3.07;;
36315;SDS011;22343;50.820;2.666;2023-02-05T14:24:47;13.27;;;3.40;;
36315;SDS011;22343;50.820;2.666;2023-02-05T14:30:33;13.73;;;2.70;;
36315;SDS011;22343;50.820;2.666;2023-02-05T14:38:59;13.40;;;3.07;;
36315;SDS011;22343;50.820;2.666;2023-02-05T14:41:47;10.30;;;2.53;;
36315;SDS011;22343;50.820;2.666;2023-02-05T14:44:34;10.07;;;2.77;;
36315;SDS011;22343;50.820;2.666;2023-02-05T14:47:21;5.73;;;2.37;;
36315;SDS011;22343;50.820;2.666;2023-02-05T14:50:10;9.20;;;3.13;;
36315;SDS011;22343;50.820;2.666;2023-02-05T14:53:02;16.67;;;3.23;;
36315;SDS011;22343;50.820;2.666;2023-02-05T14:55:48;16.77;;;4.00;;
36315;SDS011;22343;50.820;2.666;2023-02-05T14:58:38;15.70;;;4.07;;
36315;SDS011;22343;50.820;2.666;2023-02-05T15:04:21;10.67;;;3.27;;
36315;SDS011;22343;50.820;2.666;2023-02-05T15:07:15;11.33;;;2.70;;
36315;SDS011;22343;50.820;2.666;2023-02-05T15:10:06;10.60;;;2.80;;
36315;SDS011;22343;50.820;2.666;2023-02-05T15:18:58;14.63;;;3.87;;
36315;SDS011;22343;50.820;2.666;2023-02-05T15:21:47;9.23;;;3.47;;
36315;SDS011;22343;50.820;2.666;2023-02-05T15:24:33;8.00;;;2.17;;
36315;SDS011;22343;50.820;2.666;2023-02-05T15:27:23;4.73;;;1.77;;
36315;SDS011;22343;50.820;2.666;2023-02-05T15:30:21;11.93;;;3.20;;
36315;SDS011;22343;50.820;2.666;2023-02-05T15:33:12;14.30;;;3.40;;
36315;SDS011;22343;50.820;2.666;2023-02-05T15:36:01;11.30;;;2.57;;
36315;SDS011;22343;50.820;2.666;2023-02-05T15:38:51;13.07;;;3.07;;
36315;SDS011;22343;50.820;2.666;2023-02-05T15:41:40;16.47;;;3.83;;
36315;SDS011;22343;50.820;2.666;2023-02-05T15:44:27;11.13;;;3.20;;
36315;SDS011;22343;50.820;2.666;2023-02-05T15:47:16;12.90;;;3.73;;
36315;SDS011;22343;50.820;2.666;2023-02-05T15:50:02;11.80;;;3.37;;
36315;SDS011;22343;50.820;2.666;2023-02-05T15:52:47;14.53;;;3.87;;
36315;SDS011;22343;50.820;2.666;2023-02-05T15:55:32;14.40;;;3.63;;
36315;SDS011;22343;50.820;2.666;2023-02-05T15:58:19;15.13;;;3.47;;
36315;SDS011;22343;50.820;2.666;2023-02-05T16:01:04;12.27;;;2.93;;
36315;SDS011;22343;50.820;2.666;2023-02-05T16:03:49;10.07;;;3.43;;
36315;SDS011;22343;50.820;2.666;2023-02-05T16:06:34;13.13;;;3.50;;
36315;SDS011;22343;50.820;2.666;2023-02-05T16:09:20;11.10;;;3.00;;
36315;SDS011;22343;50.820;2.666;2023-02-05T16:12:10;16.20;;;3.07;;
36315;SDS011;22343;50.820;2.666;2023-02-05T16:15:03;12.30;;;2.73;;
36315;SDS011;22343;50.820;2.666;2023-02-05T16:17:50;11.40;;;3.10;;
36315;SDS011;22343;50.820;2.666;2023-02-05T16:20:38;12.10;;;3.13;;
36315;SDS011;22343;50.820;2.666;2023-02-05T16:23:26;13.60;;;3.43;;
36315;SDS011;22343;50.820;2.666;2023-02-05T16:26:22;18.90;;;4.27;;
36315;SDS011;22343;50.820;2.666;2023-02-05T16:29:49;20.87;;;3.50;;
36315;SDS011;22343;50.820;2.666;2023-02-05T16:32:38;16.73;;;3.73;;
36315;SDS011;22343;50.820;2.666;2023-02-05T16:38:29;10.53;;;2.60;;
36315;SDS011;22343;50.820;2.666;2023-02-05T16:41:24;16.23;;;4.20;;
36315;SDS011;22343;50.820;2.666;2023-02-05T16:44:27;14.80;;;3.50;;
36315;SDS011;22343;50.820;2.666;2023-02-05T16:47:19;18.07;;;4.50;;
36315;SDS011;22343;50.820;2.666;2023-02-05T16:53:20;18.23;;;4.30;;
36315;SDS011;22343;50.820;2.666;2023-02-05T16:59:00;15.97;;;3.67;;
36315;SDS011;22343;50.820;2.666;2023-02-05T17:01:46;15.67;;;5.13;;
36315;SDS011;22343;50.820;2.666;2023-02-05T17:04:32;20.97;;;3.83;;
36315;SDS011;22343;50.820;2.666;2023-02-05T17:07:18;15.90;;;4.20;;
36315;SDS011;22343;50.820;2.666;2023-02-05T17:10:07;15.07;;;4.20;;
36315;SDS011;22343;50.820;2.666;2023-02-05T17:12:57;15.47;;;3.67;;
36315;SDS011;22343;50.820;2.666;2023-02-05T17:15:44;23.63;;;4.40;;
36315;SDS011;22343;50.820;2.666;2023-02-05T17:18:29;13.67;;;3.77;;
36315;SDS011;22343;50.820;2.666;2023-02-05T17:21:22;12.37;;;3.90;;
36315;SDS011;22343;50.820;2.666;2023-02-05T17:24:07;13.90;;;3.87;;
36315;SDS011;22343;50.820;2.666;2023-02-05T17:26:52;17.90;;;3.77;;
36315;SDS011;22343;50.820;2.666;2023-02-05T17:29:37;9.73;;;3.30;;
36315;SDS011;22343;50.820;2.666;2023-02-05T17:32:21;19.67;;;5.53;;
36315;SDS011;22343;50.820;2.666;2023-02-05T17:35:16;16.03;;;4.03;;
36315;SDS011;22343;50.820;2.666;2023-02-05T17:38:00;16.13;;;4.20;;
36315;SDS011;22343;50.820;2.666;2023-02-05T17:40:45;18.90;;;4.20;;
36315;SDS011;22343;50.820;2.666;2023-02-05T17:43:30;14.23;;;4.57;;
36315;SDS011;22343;50.820;2.666;2023-02-05T17:46:14;18.57;;;4.47;;
36315;SDS011;22343;50.820;2.666;2023-02-05T17:49:00;15.10;;;3.97;;
36315;SDS011;22343;50.820;2.666;2023-02-05T17:51:44;16.23;;;4.00;;
36315;SDS011;22343;50.820;2.666;2023-02-05T17:54:29;11.13;;;3.77;;
36315;SDS011;22343;50.820;2.666;2023-02-05T17:57:17;20.10;;;4.27;;
36315;SDS011;22343;50.820;2.666;2023-02-05T18:00:03;18.07;;;4.00;;
36315;SDS011;22343;50.820;2.666;2023-02-05T18:02:48;14.27;;;3.63;;
36315;SDS011;22343;50.820;2.666;2023-02-05T18:05:33;15.90;;;3.27;;
36315;SDS011;22343;50.820;2.666;2023-02-05T18:08:18;14.10;;;3.87;;
36315;SDS011;22343;50.820;2.666;2023-02-05T18:11:03;16.07;;;4.00;;
36315;SDS011;22343;50.820;2.666;2023-02-05T18:13:48;17.13;;;4.50;;
36315;SDS011;22343;50.820;2.666;2023-02-05T18:16:32;14.97;;;4.13;;
36315;SDS011;22343;50.820;2.666;2023-02-05T18:19:17;16.33;;;4.00;;
36315;SDS011;22343;50.820;2.666;2023-02-05T18:22:01;15.87;;;3.70;;
36315;SDS011;22343;50.820;2.666;2023-02-05T18:24:45;13.17;;;4.00;;
36315;SDS011;22343;50.820;2.666;2023-02-05T18:27:30;17.17;;;4.30;;
36315;SDS011;22343;50.820;2.666;2023-02-05T18:30:15;18.30;;;4.70;;
36315;SDS011;22343;50.820;2.666;2023-02-05T18:32:59;18.17;;;3.80;;
36315;SDS011;22343;50.820;2.666;2023-02-05T18:35:44;16.57;;;4.37;;
36315;SDS011;22343;50.820;2.666;2023-02-05T18:38:29;22.03;;;5.13;;
36315;SDS011;22343;50.820;2.666;2023-02-05T18:41:15;20.10;;;3.93;;
36315;SDS011;22343;50.820;2.666;2023-02-05T18:44:01;17.60;;;4.83;;
36315;SDS011;22343;50.820;2.666;2023-02-05T18:46:45;14.33;;;4.50;;
36315;SDS011;22343;50.820;2.666;2023-02-05T18:49:30;20.50;;;5.30;;
36315;SDS011;22343;50.820;2.666;2023-02-05T18:52:16;20.50;;;5.10;;
36315;SDS011;22343;50.820;2.666;2023-02-05T18:55:01;17.63;;;4.47;;
36315;SDS011;22343;50.820;2.666;2023-02-05T18:57:45;15.50;;;4.63;;
36315;SDS011;22343;50.820;2.666;2023-02-05T19:00:30;20.20;;;4.37;;
36315;SDS011;22343;50.820;2.666;2023-02-05T19:03:14;16.50;;;4.33;;
36315;SDS011;22343;50.820;2.666;2023-02-05T19:06:06;18.33;;;4.50;;
36315;SDS011;22343;50.820;2.666;2023-02-05T19:08:55;14.30;;;4.27;;
36315;SDS011;22343;50.820;2.666;2023-02-05T19:11:40;15.77;;;4.37;;
36315;SDS011;22343;50.820;2.666;2023-02-05T19:14:26;15.70;;;4.47;;
36315;SDS011;22343;50.820;2.666;2023-02-05T19:17:10;12.63;;;4.80;;